Time;durP1;ratioP1;P1;durP2;ratioP2;P2;SDS_P1;SDS_P2;PMS_P1;PMS_P2;Temp;Humidity;BMP_temperature;BMP_pressure;BME280_temperature;BME280_humidity;BME280_pressure;Samples;Min_cycle;Max_cycle;Signal;HPM_P1;HPM_P2
2021/07/24 00:02:00;;;;;;;77.43;71.67;;;;;;;;;;4973047;28;20482;-72
2021/07/24 00:04:27;;;;;;;74.10;68.70;;;;;;;;;;4972915;28;20451;-72
2021/07/24 00:06:56;;;;;;;75.07;69.63;;;;;;;;;;4973187;28;20456;-72
2021/07/24 00:09:23;;;;;;;73.33;67.83;;;;;;;;;;4972775;28;20487;-72
2021/07/24 00:11:50;;;;;;;74.33;68.90;;;;;;;;;;4973016;28;20460;-72
2021/07/24 00:14:17;;;;;;;70.47;65.43;;;;;;;;;;4972563;28;20823;-73
2021/07/24 00:16:44;;;;;;;69.87;64.80;;;;;;;;;;4972739;28;20821;-72
2021/07/24 00:19:11;;;;;;;73.37;68.17;;;;;;;;;;4972910;28;20462;-72
2021/07/24 00:21:38;;;;;;;68.30;63.27;;;;;;;;;;4972456;28;20475;-72
2021/07/24 00:24:07;;;;;;;68.03;62.87;;;;;;;;;;4972834;28;20840;-72
2021/07/24 00:26:34;;;;;;;69.43;64.43;;;;;;;;;;4973012;28;20447;-72
2021/07/24 00:29:05;;;;;;;68.70;63.70;;;;;;;;;;4972754;28;21031;-72
2021/07/24 00:31:32;;;;;;;67.53;62.40;;;;;;;;;;4972374;28;20891;-72
2021/07/24 00:33:59;;;;;;;66.33;61.43;;;;;;;;;;4973090;28;20454;-73
2021/07/24 00:36:27;;;;;;;66.50;61.70;;;;;;;;;;4972456;28;21026;-72
2021/07/24 00:38:54;;;;;;;68.40;63.60;;;;;;;;;;4976636;28;20455;-72
2021/07/24 00:41:26;;;;;;;69.10;63.90;;;;;;;;;;4976415;28;20987;-72
2021/07/24 00:43:54;;;;;;;67.40;62.57;;;;;;;;;;4976623;28;20510;-72
2021/07/24 00:46:22;;;;;;;66.40;61.70;;;;;;;;;;4976296;28;20446;-70
2021/07/24 00:48:50;;;;;;;63.80;59.00;;;;;;;;;;4976657;28;20495;-70
2021/07/24 00:51:23;;;;;;;64.57;59.73;;;;;;;;;;4976264;28;20990;-70
2021/07/24 00:53:50;;;;;;;64.60;59.80;;;;;;;;;;4976286;28;20447;-71
2021/07/24 00:56:18;;;;;;;62.77;58.07;;;;;;;;;;4976335;28;20455;-71
2021/07/24 00:58:46;;;;;;;63.90;59.10;;;;;;;;;;4976633;28;20449;-70
2021/07/24 01:01:14;;;;;;;62.67;58.17;;;;;;;;;;4976238;28;20471;-70
2021/07/24 01:03:41;;;;;;;65.13;60.53;;;;;;;;;;4976915;28;20453;-72
2021/07/24 01:06:08;;;;;;;62.73;58.00;;;;;;;;;;4977362;28;20963;-74
2021/07/24 01:08:37;;;;;;;66.67;61.93;;;;;;;;;;4977698;28;20491;-73
2021/07/24 01:11:05;;;;;;;62.67;58.07;;;;;;;;;;4977135;28;20482;-73
2021/07/24 01:13:32;;;;;;;64.20;59.70;;;;;;;;;;4977305;28;20459;-73
2021/07/24 01:16:00;;;;;;;62.80;58.10;;;;;;;;;;4977889;28;20538;-73
2021/07/24 01:18:28;;;;;;;62.37;57.70;;;;;;;;;;4977297;28;20455;-72
2021/07/24 01:20:57;;;;;;;61.83;57.43;;;;;;;;;;4977002;28;20979;-73
2021/07/24 01:23:26;;;;;;;62.30;57.80;;;;;;;;;;4977605;28;20462;-71
2021/07/24 01:25:54;;;;;;;61.70;57.10;;;;;;;;;;4978104;28;20455;-71
2021/07/24 01:28:25;;;;;;;58.80;54.70;;;;;;;;;;4977354;28;20868;-71
2021/07/24 01:30:52;;;;;;;55.40;51.43;;;;;;;;;;4975950;28;20495;-70
2021/07/24 01:33:22;;;;;;;60.67;56.23;;;;;;;;;;4977166;28;20451;-73
2021/07/24 01:35:49;;;;;;;60.83;56.37;;;;;;;;;;4977086;28;20824;-73
2021/07/24 01:38:17;;;;;;;60.07;55.50;;;;;;;;;;4977024;28;20947;-73
2021/07/24 01:40:45;;;;;;;59.83;55.23;;;;;;;;;;4976752;28;20498;-73
2021/07/24 01:43:13;;;;;;;58.20;53.67;;;;;;;;;;4976641;28;20458;-73
2021/07/24 01:45:40;;;;;;;57.17;52.97;;;;;;;;;;4975545;28;20481;-70
2021/07/24 01:48:11;;;;;;;58.50;54.10;;;;;;;;;;4975517;28;20462;-69
2021/07/24 01:53:24;;;;;;;57.97;53.80;;;;;;;;;;4975801;28;20886;-70
2021/07/24 01:55:53;;;;;;;58.60;54.37;;;;;;;;;;4977075;28;20459;-71
2021/07/24 01:58:24;;;;;;;58.37;54.17;;;;;;;;;;4976593;28;20455;-69
2021/07/24 02:00:52;;;;;;;58.40;54.00;;;;;;;;;;4974833;28;21021;-71
2021/07/24 02:03:19;;;;;;;60.50;56.20;;;;;;;;;;4975246;28;20467;-70
2021/07/24 02:05:47;;;;;;;58.60;54.40;;;;;;;;;;4975691;28;20448;-75
2021/07/24 02:08:19;;;;;;;57.70;53.40;;;;;;;;;;4975208;28;20955;-70
2021/07/24 02:10:46;;;;;;;60.20;55.80;;;;;;;;;;4975198;28;20893;-71
2021/07/24 02:13:16;;;;;;;59.07;54.70;;;;;;;;;;4976990;28;20456;-71
2021/07/24 02:15:43;;;;;;;56.47;52.30;;;;;;;;;;4976432;28;20458;-71
2021/07/24 02:18:11;;;;;;;58.47;54.13;;;;;;;;;;4975830;28;20459;-71
2021/07/24 02:20:39;;;;;;;59.33;54.60;;;;;;;;;;4974931;28;20478;-71
2021/07/24 02:23:06;;;;;;;57.90;53.50;;;;;;;;;;4974410;28;20451;-71
2021/07/24 02:25:33;;;;;;;56.03;51.77;;;;;;;;;;4974924;28;20455;-70
2021/07/24 02:28:00;;;;;;;55.30;51.10;;;;;;;;;;4974864;28;20454;-71
2021/07/24 02:30:28;;;;;;;59.20;54.90;;;;;;;;;;4974515;28;20506;-69
2021/07/24 02:32:56;;;;;;;58.50;54.10;;;;;;;;;;4975090;28;20452;-69
2021/07/24 02:35:23;;;;;;;56.13;52.00;;;;;;;;;;4974339;28;20463;-69
2021/07/24 02:37:50;;;;;;;55.33;51.33;;;;;;;;;;4974863;28;20466;-70
2021/07/24 02:40:17;;;;;;;56.20;51.97;;;;;;;;;;4974397;28;20478;-70
2021/07/24 02:42:44;;;;;;;54.73;50.60;;;;;;;;;;4974702;28;20861;-71
2021/07/24 02:45:12;;;;;;;56.47;52.17;;;;;;;;;;4974704;28;20459;-70
2021/07/24 02:47:41;;;;;;;54.50;50.40;;;;;;;;;;4974475;28;20965;-70
2021/07/24 02:50:08;;;;;;;54.50;50.40;;;;;;;;;;4974147;28;20493;-70
2021/07/24 02:52:35;;;;;;;55.13;51.23;;;;;;;;;;4974376;28;20823;-70
2021/07/24 02:55:02;;;;;;;57.10;52.53;;;;;;;;;;4975418;28;20466;-70
2021/07/24 02:57:29;;;;;;;56.13;51.70;;;;;;;;;;4976299;28;20455;-70
2021/07/24 02:59:56;;;;;;;53.37;49.37;;;;;;;;;;4976097;28;20467;-70
2021/07/24 03:02:23;;;;;;;55.70;51.80;;;;;;;;;;4973691;28;20462;-71
2021/07/24 03:04:52;;;;;;;55.63;51.27;;;;;;;;;;4974166;28;20451;-71
2021/07/24 03:07:19;;;;;;;56.20;52.10;;;;;;;;;;4973828;28;20455;-71
2021/07/24 03:09:46;;;;;;;57.13;52.87;;;;;;;;;;4973847;28;20491;-70
2021/07/24 03:12:16;;;;;;;56.77;52.60;;;;;;;;;;4973414;28;20797;-71
2021/07/24 03:14:44;;;;;;;55.63;51.53;;;;;;;;;;4985252;28;20448;-71
2021/07/24 03:17:11;;;;;;;54.47;50.57;;;;;;;;;;4982613;28;21013;-71
2021/07/24 03:19:38;;;;;;;53.27;49.27;;;;;;;;;;4983767;28;20462;-71
2021/07/24 03:22:07;;;;;;;56.20;52.10;;;;;;;;;;4986372;28;20462;-71
2021/07/24 03:24:34;;;;;;;56.87;52.77;;;;;;;;;;4979147;28;20451;-71
2021/07/24 03:27:01;;;;;;;55.63;51.40;;;;;;;;;;4977506;28;20467;-70
2021/07/24 03:29:28;;;;;;;56.30;52.30;;;;;;;;;;4975610;28;20487;-71
2021/07/24 03:31:55;;;;;;;55.87;51.97;;;;;;;;;;4973085;28;20904;-70
2021/07/24 03:34:22;;;;;;;54.80;50.80;;;;;;;;;;4974076;28;20459;-71
2021/07/24 03:36:49;;;;;;;56.70;52.53;;;;;;;;;;4973617;28;20740;-71
2021/07/24 03:39:18;;;;;;;58.27;54.27;;;;;;;;;;4973623;28;20473;-71
2021/07/24 03:41:45;;;;;;;54.97;50.87;;;;;;;;;;4973037;28;20461;-71
2021/07/24 03:44:12;;;;;;;55.03;51.07;;;;;;;;;;4973865;28;20615;-71
2021/07/24 03:46:39;;;;;;;55.87;51.77;;;;;;;;;;4974992;28;20459;-72
2021/07/24 03:49:06;;;;;;;56.37;52.23;;;;;;;;;;4973412;28;20856;-70
2021/07/24 03:51:33;;;;;;;58.23;53.77;;;;;;;;;;4973232;28;20471;-69
2021/07/24 03:54:00;;;;;;;58.30;54.03;;;;;;;;;;4973604;28;20461;-70
2021/07/24 03:56:29;;;;;;;58.73;54.40;;;;;;;;;;4972807;28;20824;-69
2021/07/24 03:58:56;;;;;;;62.00;57.40;;;;;;;;;;4973132;28;20447;-69
2021/07/24 04:01:25;;;;;;;61.50;57.10;;;;;;;;;;4973086;28;20570;-69
2021/07/24 04:03:53;;;;;;;66.07;61.27;;;;;;;;;;4974774;28;20542;-70
2021/07/24 04:06:22;;;;;;;61.20;56.77;;;;;;;;;;4974940;28;20462;-71
2021/07/24 04:08:49;;;;;;;62.03;57.67;;;;;;;;;;4974405;28;20506;-71
2021/07/24 04:11:16;;;;;;;62.53;58.10;;;;;;;;;;4973638;28;20495;-71
2021/07/24 04:13:45;;;;;;;61.63;57.17;;;;;;;;;;4974365;28;20455;-71
2021/07/24 04:16:12;;;;;;;62.00;57.60;;;;;;;;;;4974536;28;20626;-71
2021/07/24 04:18:39;;;;;;;64.83;60.13;;;;;;;;;;4974350;28;20470;-71
2021/07/24 04:21:07;;;;;;;62.93;58.63;;;;;;;;;;4974325;28;20468;-71
2021/07/24 04:23:34;;;;;;;68.50;63.90;;;;;;;;;;4974125;28;20448;-71
2021/07/24 04:26:01;;;;;;;65.83;61.23;;;;;;;;;;4973971;28;20822;-71
2021/07/24 04:28:28;;;;;;;74.10;69.20;;;;;;;;;;4974257;28;20457;-71
2021/07/24 04:30:56;;;;;;;70.67;65.87;;;;;;;;;;4973756;28;20509;-71
2021/07/24 04:33:24;;;;;;;72.90;67.80;;;;;;;;;;4974282;28;20965;-71
2021/07/24 04:35:51;;;;;;;75.03;69.67;;;;;;;;;;4973382;28;20457;-71
2021/07/24 04:38:18;;;;;;;78.60;73.10;;;;;;;;;;4972900;28;20462;-71
2021/07/24 04:40:45;;;;;;;75.60;70.30;;;;;;;;;;4972294;28;20468;-71
2021/07/24 04:43:14;;;;;;;79.07;73.77;;;;;;;;;;4972954;28;20651;-71
2021/07/24 04:45:44;;;;;;;85.37;79.57;;;;;;;;;;4974579;28;20525;-71
2021/07/24 04:48:13;;;;;;;88.50;82.60;;;;;;;;;;4974091;28;20457;-71
2021/07/24 04:50:42;;;;;;;91.67;85.37;;;;;;;;;;4974315;28;20518;-71
2021/07/24 04:53:10;;;;;;;88.27;82.27;;;;;;;;;;4974499;28;20503;-71
2021/07/24 04:55:37;;;;;;;94.73;88.40;;;;;;;;;;4974123;28;20943;-71
2021/07/24 04:58:05;;;;;;;97.53;90.70;;;;;;;;;;4974033;28;20451;-71
2021/07/24 05:00:32;;;;;;;100.63;93.83;;;;;;;;;;4974071;28;20467;-70
2021/07/24 05:03:00;;;;;;;102.40;95.40;;;;;;;;;;4972360;28;20463;-71
2021/07/24 05:05:28;;;;;;;104.63;97.33;;;;;;;;;;4972254;28;20451;-70
2021/07/24 05:07:55;;;;;;;108.70;101.10;;;;;;;;;;4972334;28;20458;-70
2021/07/24 05:10:22;;;;;;;114.33;106.20;;;;;;;;;;4972332;28;20491;-70
2021/07/24 05:12:50;;;;;;;121.17;112.77;;;;;;;;;;4972208;28;20858;-69
2021/07/24 05:15:17;;;;;;;134.47;125.07;;;;;;;;;;4972332;28;20466;-69
2021/07/24 05:17:44;;;;;;;130.20;120.80;;;;;;;;;;4972407;28;20474;-71
2021/07/24 05:20:11;;;;;;;138.97;129.37;;;;;;;;;;4972062;28;20475;-70
2021/07/24 05:22:40;;;;;;;150.53;139.57;;;;;;;;;;4972819;28;20462;-70
2021/07/24 05:25:07;;;;;;;142.87;132.97;;;;;;;;;;4974975;28;20477;-70
2021/07/24 05:27:35;;;;;;;161.73;150.00;;;;;;;;;;4976161;28;20534;-71
2021/07/24 05:30:02;;;;;;;157.97;146.70;;;;;;;;;;4977103;28;21069;-71
2021/07/24 05:32:29;;;;;;;161.67;150.27;;;;;;;;;;4977141;28;20466;-71
2021/07/24 05:34:56;;;;;;;170.03;158.43;;;;;;;;;;4977335;28;20882;-71
2021/07/24 05:37:23;;;;;;;188.93;176.63;;;;;;;;;;4975673;28;20463;-71
2021/07/24 05:39:51;;;;;;;172.77;160.67;;;;;;;;;;4975600;28;20824;-71
2021/07/24 05:42:19;;;;;;;187.50;175.07;;;;;;;;;;4975128;28;20451;-73
2021/07/24 05:44:46;;;;;;;209.60;196.00;;;;;;;;;;4975730;28;20456;-73
2021/07/24 05:47:13;;;;;;;197.43;184.50;;;;;;;;;;4975181;28;20951;-73
2021/07/24 05:49:40;;;;;;;222.73;209.33;;;;;;;;;;4975190;28;20479;-74
2021/07/24 05:52:08;;;;;;;218.27;204.50;;;;;;;;;;4975262;28;20546;-73
2021/07/24 05:54:37;;;;;;;209.17;195.67;;;;;;;;;;4975077;28;20959;-73
2021/07/24 05:57:06;;;;;;;224.43;211.00;;;;;;;;;;4975291;28;20454;-73
2021/07/24 05:59:34;;;;;;;220.77;207.40;;;;;;;;;;4975105;28;20455;-73
2021/07/24 06:02:04;;;;;;;250.43;236.13;;;;;;;;;;4975035;28;20447;-73
2021/07/24 06:04:31;;;;;;;244.03;230.53;;;;;;;;;;4975158;28;20455;-73
2021/07/24 06:06:58;;;;;;;229.73;216.93;;;;;;;;;;4975051;28;20451;-73
2021/07/24 06:09:25;;;;;;;244.13;230.73;;;;;;;;;;4975497;28;20455;-73
2021/07/24 06:11:52;;;;;;;250.27;235.90;;;;;;;;;;4974861;28;20586;-73
2021/07/24 06:14:21;;;;;;;221.07;208.77;;;;;;;;;;4976439;28;20455;-74
2021/07/24 06:16:48;;;;;;;241.97;228.77;;;;;;;;;;4974959;28;20466;-73
2021/07/24 06:19:15;;;;;;;262.10;248.70;;;;;;;;;;4975949;28;20459;-74
2021/07/24 06:21:42;;;;;;;241.23;228.00;;;;;;;;;;4977354;28;20467;-73
2021/07/24 06:24:09;;;;;;;228.10;215.80;;;;;;;;;;4974921;28;20451;-73
2021/07/24 06:26:37;;;;;;;236.20;223.27;;;;;;;;;;4974781;28;20977;-74
2021/07/24 06:29:04;;;;;;;231.37;219.10;;;;;;;;;;4974465;28;20451;-73
2021/07/24 06:31:32;;;;;;;214.47;203.37;;;;;;;;;;4976097;28;20499;-72
2021/07/24 06:34:02;;;;;;;195.20;185.07;;;;;;;;;;4974927;28;20841;-73
2021/07/24 06:36:29;;;;;;;182.03;172.40;;;;;;;;;;4974833;28;20451;-73
2021/07/24 06:38:57;;;;;;;164.03;155.60;;;;;;;;;;4977093;28;20455;-74
2021/07/24 06:41:26;;;;;;;161.17;153.30;;;;;;;;;;4976489;28;20997;-74
2021/07/24 06:43:53;;;;;;;157.23;149.53;;;;;;;;;;4975567;28;20467;-73
2021/07/24 06:46:21;;;;;;;150.97;143.40;;;;;;;;;;4975888;28;20456;-73
2021/07/24 06:48:50;;;;;;;148.43;140.93;;;;;;;;;;4974827;28;20535;-73
2021/07/24 06:51:17;;;;;;;142.30;135.20;;;;;;;;;;4974716;28;20491;-73
2021/07/24 06:53:44;;;;;;;154.80;146.83;;;;;;;;;;4974772;28;20837;-73
2021/07/24 06:56:11;;;;;;;132.77;126.07;;;;;;;;;;4975888;28;20483;-74
2021/07/24 06:58:38;;;;;;;113.50;107.70;;;;;;;;;;4976292;28;20456;-73
2021/07/24 07:01:07;;;;;;;105.23;99.53;;;;;;;;;;4974509;28;20473;-73
2021/07/24 07:03:34;;;;;;;75.10;71.03;;;;;;;;;;4974843;28;20442;-73
2021/07/24 07:06:05;;;;;;;82.40;78.00;;;;;;;;;;4974800;28;20470;-73
2021/07/24 07:08:32;;;;;;;58.70;55.50;;;;;;;;;;4974397;28;20963;-73
2021/07/24 07:11:02;;;;;;;48.40;45.50;;;;;;;;;;4974622;28;20583;-73
2021/07/24 07:13:29;;;;;;;45.90;43.20;;;;;;;;;;4974683;28;20455;-73
2021/07/24 07:15:56;;;;;;;47.90;45.10;;;;;;;;;;4974565;28;20455;-73
2021/07/24 07:18:23;;;;;;;41.77;39.23;;;;;;;;;;4974767;28;20567;-73
2021/07/24 07:20:51;;;;;;;46.23;43.33;;;;;;;;;;4974251;28;20487;-73
2021/07/24 07:23:20;;;;;;;39.43;37.13;;;;;;;;;;4974310;28;20455;-72
2021/07/24 07:25:47;;;;;;;34.70;32.40;;;;;;;;;;4974182;28;20460;-73
2021/07/24 07:28:14;;;;;;;32.63;30.53;;;;;;;;;;4974699;28;20455;-74
2021/07/24 07:30:41;;;;;;;32.40;30.50;;;;;;;;;;4973836;28;20499;-73
2021/07/24 07:33:08;;;;;;;29.20;27.40;;;;;;;;;;4974548;28;20459;-74
2021/07/24 07:35:35;;;;;;;29.77;27.90;;;;;;;;;;4974967;28;20944;-73
2021/07/24 07:38:03;;;;;;;28.53;26.67;;;;;;;;;;4974208;28;20447;-74
2021/07/24 07:40:31;;;;;;;27.67;26.17;;;;;;;;;;4974277;28;20475;-73
2021/07/24 07:42:59;;;;;;;27.43;25.77;;;;;;;;;;4974130;28;20452;-73
2021/07/24 07:45:26;;;;;;;25.70;24.20;;;;;;;;;;4974506;28;20455;-73
2021/07/24 07:47:53;;;;;;;24.97;23.53;;;;;;;;;;4973765;28;20831;-73
2021/07/24 07:50:21;;;;;;;24.90;23.20;;;;;;;;;;4974358;28;20475;-74
2021/07/24 07:52:48;;;;;;;24.10;22.70;;;;;;;;;;4974290;28;20974;-73
2021/07/24 07:55:16;;;;;;;23.70;22.30;;;;;;;;;;4973950;28;20459;-73
2021/07/24 07:57:44;;;;;;;24.50;22.97;;;;;;;;;;4973479;28;20448;-74
2021/07/24 08:00:12;;;;;;;23.80;22.40;;;;;;;;;;4973749;28;20869;-73
2021/07/24 08:02:39;;;;;;;23.30;21.93;;;;;;;;;;4973735;28;20458;-73
2021/07/24 08:05:06;;;;;;;23.63;22.13;;;;;;;;;;4974353;28;20479;-73
2021/07/24 08:07:33;;;;;;;23.30;21.90;;;;;;;;;;4974280;28;20781;-73
2021/07/24 08:10:01;;;;;;;22.70;21.30;;;;;;;;;;4973814;28;20471;-73
2021/07/24 08:12:28;;;;;;;22.73;21.53;;;;;;;;;;4973724;28;20505;-74
2021/07/24 08:14:56;;;;;;;21.83;20.53;;;;;;;;;;4974109;28;20455;-74
2021/07/24 08:17:23;;;;;;;23.70;22.30;;;;;;;;;;4973676;28;20943;-74
2021/07/24 08:19:51;;;;;;;22.50;21.20;;;;;;;;;;4974036;28;20467;-74
2021/07/24 08:22:18;;;;;;;22.03;20.87;;;;;;;;;;4973891;28;20450;-74
2021/07/24 08:24:45;;;;;;;22.10;20.80;;;;;;;;;;4973994;28;20478;-73
2021/07/24 08:27:12;;;;;;;22.10;20.93;;;;;;;;;;4973865;28;20462;-74
2021/07/24 08:29:39;;;;;;;23.13;21.83;;;;;;;;;;4973421;28;20972;-73
2021/07/24 08:32:10;;;;;;;21.30;20.30;;;;;;;;;;4973270;28;20471;-74
2021/07/24 08:34:37;;;;;;;21.70;20.40;;;;;;;;;;4974218;28;20436;-74
2021/07/24 08:37:06;;;;;;;22.50;21.40;;;;;;;;;;4974002;28;20455;-74
2021/07/24 08:39:35;;;;;;;22.63;21.40;;;;;;;;;;4973748;28;20465;-73
2021/07/24 08:42:02;;;;;;;22.37;21.17;;;;;;;;;;4973251;28;20459;-74
2021/07/24 08:44:29;;;;;;;23.17;21.87;;;;;;;;;;4973834;28;20447;-73
2021/07/24 08:46:56;;;;;;;23.07;21.87;;;;;;;;;;4973871;28;20465;-74
2021/07/24 08:49:25;;;;;;;23.37;21.97;;;;;;;;;;4974003;28;20969;-74
2021/07/24 08:51:54;;;;;;;22.27;20.97;;;;;;;;;;4973749;28;20493;-74
2021/07/24 08:54:21;;;;;;;23.00;21.70;;;;;;;;;;4973885;28;20459;-73
2021/07/24 08:56:48;;;;;;;22.17;20.97;;;;;;;;;;4973382;28;20481;-73
2021/07/24 08:59:18;;;;;;;21.80;20.60;;;;;;;;;;4975115;28;20455;-74
2021/07/24 09:01:51;;;;;;;21.43;20.33;;;;;;;;;;4977838;28;20501;-74
2021/07/24 09:04:19;;;;;;;24.30;22.80;;;;;;;;;;4977626;28;20439;-74
2021/07/24 09:06:48;;;;;;;23.60;22.30;;;;;;;;;;4977131;28;20943;-74
2021/07/24 09:09:18;;;;;;;22.97;21.77;;;;;;;;;;4977096;28;20483;-74
2021/07/24 09:11:45;;;;;;;22.67;21.47;;;;;;;;;;4977156;28;20495;-74
2021/07/24 09:14:13;;;;;;;22.70;21.50;;;;;;;;;;4976665;28;20947;-74
2021/07/24 09:16:41;;;;;;;20.73;19.73;;;;;;;;;;4977093;28;20456;-74
2021/07/24 09:19:08;;;;;;;24.60;23.23;;;;;;;;;;4977131;28;20455;-74
2021/07/24 09:21:38;;;;;;;23.97;22.57;;;;;;;;;;4976729;28;20459;-74
2021/07/24 09:24:20;;;;;;;20.70;19.50;;;;;;;;;;4976696;28;20455;-74
2021/07/24 09:26:48;;;;;;;20.10;19.10;;;;;;;;;;4974693;28;20463;-73
2021/07/24 09:29:16;;;;;;;20.27;19.27;;;;;;;;;;4977113;28;20823;-73
2021/07/24 09:31:44;;;;;;;21.10;20.00;;;;;;;;;;4977188;28;20491;-73
2021/07/24 09:34:13;;;;;;;19.13;18.23;;;;;;;;;;4976746;28;20455;-73
2021/07/24 09:36:40;;;;;;;23.93;22.63;;;;;;;;;;4976866;28;20459;-73
2021/07/24 09:39:08;;;;;;;23.30;22.00;;;;;;;;;;4977016;28;20455;-73
2021/07/24 09:41:35;;;;;;;23.13;21.93;;;;;;;;;;4975760;28;20471;-73
2021/07/24 09:44:04;;;;;;;22.13;20.90;;;;;;;;;;4976426;28;20462;-73
2021/07/24 09:46:31;;;;;;;22.47;21.33;;;;;;;;;;4976249;28;20455;-73
2021/07/24 09:49:10;;;;;;;22.03;20.83;;;;;;;;;;4976538;28;20885;-73
2021/07/24 09:51:38;;;;;;;20.67;19.57;;;;;;;;;;4975579;28;21017;-73
2021/07/24 09:54:05;;;;;;;22.03;20.77;;;;;;;;;;4975298;28;20798;-73
2021/07/24 09:56:40;;;;;;;21.70;20.40;;;;;;;;;;4975594;28;20491;-73
2021/07/24 09:59:19;;;;;;;20.83;19.60;;;;;;;;;;4975664;28;20439;-73
2021/07/24 10:01:53;;;;;;;21.90;20.60;;;;;;;;;;4975518;28;20475;-73
2021/07/24 10:04:23;;;;;;;21.00;19.70;;;;;;;;;;4977321;28;20451;-73
2021/07/24 10:06:53;;;;;;;20.83;19.83;;;;;;;;;;4976567;28;20465;-73
2021/07/24 10:09:25;;;;;;;20.63;19.47;;;;;;;;;;4975287;28;20943;-73
2021/07/24 10:11:54;;;;;;;21.20;20.03;;;;;;;;;;4974666;28;21021;-73
2021/07/24 10:14:22;;;;;;;23.10;21.80;;;;;;;;;;4975617;28;20818;-73
2021/07/24 10:16:50;;;;;;;21.60;20.30;;;;;;;;;;4975245;28;20462;-74
2021/07/24 10:19:18;;;;;;;20.30;19.30;;;;;;;;;;4976199;28;20470;-73
2021/07/24 10:21:45;;;;;;;20.53;19.43;;;;;;;;;;4975512;28;20537;-74
2021/07/24 10:24:12;;;;;;;20.00;19.00;;;;;;;;;;4976084;28;20458;-73
2021/07/24 10:26:41;;;;;;;19.73;18.70;;;;;;;;;;4975252;28;20837;-74
2021/07/24 10:29:09;;;;;;;20.83;19.63;;;;;;;;;;4975524;28;20595;-74
2021/07/24 10:31:42;;;;;;;20.47;19.37;;;;;;;;;;4975195;28;21114;-74
2021/07/24 10:34:10;;;;;;;20.40;19.40;;;;;;;;;;4975346;28;20559;-73
2021/07/24 10:36:38;;;;;;;20.80;19.63;;;;;;;;;;4975512;28;20832;-74
2021/07/24 10:39:07;;;;;;;19.73;18.70;;;;;;;;;;4975047;28;20459;-74
2021/07/24 10:41:44;;;;;;;19.00;18.10;;;;;;;;;;4974246;28;20571;-74
2021/07/24 10:44:13;;;;;;;19.97;18.93;;;;;;;;;;4974693;28;20446;-73
2021/07/24 10:46:58;;;;;;;20.30;19.10;;;;;;;;;;4974275;28;20461;-73
2021/07/24 10:49:43;;;;;;;19.20;18.20;;;;;;;;;;4973824;28;20455;-74
2021/07/24 10:52:11;;;;;;;20.77;19.33;;;;;;;;;;4973599;28;20492;-74
2021/07/24 10:55:12;;;;;;;19.40;18.20;;;;;;;;;;4974282;28;20510;-73
2021/07/24 10:57:59;;;;;;;20.33;19.20;;;;;;;;;;4974022;28;20965;-73
2021/07/24 11:00:40;;;;;;;19.90;18.90;;;;;;;;;;4975282;28;21006;-73
2021/07/24 11:03:27;;;;;;;20.30;19.20;;;;;;;;;;4974861;28;20439;-73
2021/07/24 11:05:55;;;;;;;21.03;19.90;;;;;;;;;;4973932;28;20451;-73
2021/07/24 11:08:43;;;;;;;20.70;19.50;;;;;;;;;;4973800;28;20459;-73
2021/07/24 11:11:10;;;;;;;20.00;19.00;;;;;;;;;;4973362;28;20853;-74
2021/07/24 11:13:49;;;;;;;20.07;18.87;;;;;;;;;;4973916;28;20447;-74
2021/07/24 11:16:16;;;;;;;20.20;19.00;;;;;;;;;;4973651;28;20446;-74
2021/07/24 11:19:05;;;;;;;20.40;19.30;;;;;;;;;;4973965;28;20462;-74
2021/07/24 11:21:50;;;;;;;19.73;18.73;;;;;;;;;;4972532;28;20816;-74
2021/07/24 11:24:19;;;;;;;20.93;19.70;;;;;;;;;;4973765;28;20457;-75
2021/07/24 11:26:46;;;;;;;20.00;19.00;;;;;;;;;;4973778;28;20447;-74
2021/07/24 11:29:23;;;;;;;20.80;19.70;;;;;;;;;;4973572;28;20983;-74
2021/07/24 11:31:50;;;;;;;20.33;19.23;;;;;;;;;;4973459;28;20475;-74
2021/07/24 11:34:19;;;;;;;20.23;19.13;;;;;;;;;;4974327;28;20455;-73
2021/07/24 11:36:48;;;;;;;19.90;18.90;;;;;;;;;;4973511;28;20461;-74
2021/07/24 11:39:15;;;;;;;20.93;19.60;;;;;;;;;;4973247;28;20943;-74
2021/07/24 11:41:44;;;;;;;20.30;19.20;;;;;;;;;;4973550;28;20478;-73
2021/07/24 11:44:11;;;;;;;19.73;18.73;;;;;;;;;;4973414;28;20954;-74
2021/07/24 11:46:38;;;;;;;20.30;19.30;;;;;;;;;;4973374;28;20443;-73
2021/07/24 11:49:05;;;;;;;21.03;19.93;;;;;;;;;;4973297;28;20457;-74
2021/07/24 11:51:33;;;;;;;20.43;19.40;;;;;;;;;;4973070;28;20518;-74
2021/07/24 11:54:00;;;;;;;20.93;19.83;;;;;;;;;;4972916;28;20465;-73
2021/07/24 11:56:27;;;;;;;21.40;20.30;;;;;;;;;;4973313;28;20458;-74
2021/07/24 11:58:56;;;;;;;21.27;20.10;;;;;;;;;;4973161;28;20826;-74
2021/07/24 12:01:24;;;;;;;21.00;19.80;;;;;;;;;;4972755;28;20474;-74
2021/07/24 12:04:07;;;;;;;20.70;19.60;;;;;;;;;;4972803;28;20845;-74
2021/07/24 12:06:36;;;;;;;21.40;20.10;;;;;;;;;;4972870;28;20439;-74
2021/07/24 12:09:03;;;;;;;20.80;19.70;;;;;;;;;;4973019;28;20458;-71
2021/07/24 12:11:31;;;;;;;21.17;20.07;;;;;;;;;;4972620;28;20474;-71
2021/07/24 12:14:04;;;;;;;21.90;20.20;;;;;;;;;;4973175;28;20458;-74
2021/07/24 12:16:38;;;;;;;21.30;20.03;;;;;;;;;;4972895;28;20497;-74
2021/07/24 12:19:12;;;;;;;21.30;20.10;;;;;;;;;;4973071;28;20545;-74
2021/07/24 12:21:39;;;;;;;23.27;21.77;;;;;;;;;;4972709;28;20474;-73
2021/07/24 12:24:07;;;;;;;21.80;20.60;;;;;;;;;;4972709;28;20961;-74
2021/07/24 12:26:35;;;;;;;21.80;20.60;;;;;;;;;;4972779;28;20455;-73
2021/07/24 12:29:21;;;;;;;22.37;21.10;;;;;;;;;;4972906;28;20454;-73
2021/07/24 12:31:50;;;;;;;22.23;21.03;;;;;;;;;;4972653;28;20433;-74
2021/07/24 12:34:18;;;;;;;22.07;20.87;;;;;;;;;;4975839;28;20474;-74
2021/07/24 12:36:51;;;;;;;22.00;20.80;;;;;;;;;;4976580;28;20449;-74
2021/07/24 12:39:19;;;;;;;22.07;20.87;;;;;;;;;;4976767;28;20884;-74
2021/07/24 12:41:46;;;;;;;22.20;21.00;;;;;;;;;;4976227;28;20532;-74
2021/07/24 12:44:15;;;;;;;22.90;21.70;;;;;;;;;;4976555;28;20459;-74
2021/07/24 12:46:42;;;;;;;23.40;22.00;;;;;;;;;;4976688;28;20455;-73
2021/07/24 12:49:10;;;;;;;24.10;22.80;;;;;;;;;;4976644;28;20461;-73
2021/07/24 12:51:39;;;;;;;24.00;22.47;;;;;;;;;;4976150;28;20826;-74
2021/07/24 12:54:16;;;;;;;22.90;21.63;;;;;;;;;;4976547;28;20575;-75
2021/07/24 12:56:45;;;;;;;23.47;22.17;;;;;;;;;;4975989;28;21014;-74
2021/07/24 12:59:14;;;;;;;23.83;22.53;;;;;;;;;;4976686;28;20455;-74
2021/07/24 13:01:45;;;;;;;24.23;22.53;;;;;;;;;;4975886;28;20479;-74
2021/07/24 13:04:12;;;;;;;23.77;22.33;;;;;;;;;;4977571;28;20443;-74
2021/07/24 13:06:40;;;;;;;23.87;22.47;;;;;;;;;;4976784;28;20447;-75
2021/07/24 13:09:07;;;;;;;23.50;22.20;;;;;;;;;;4976259;28;20546;-74
2021/07/24 13:11:34;;;;;;;24.60;23.10;;;;;;;;;;4975891;28;20857;-74
2021/07/24 13:14:01;;;;;;;24.40;23.00;;;;;;;;;;4976311;28;20495;-74
2021/07/24 13:16:32;;;;;;;24.87;23.17;;;;;;;;;;4975771;28;20990;-74
2021/07/24 13:18:59;;;;;;;25.80;24.40;;;;;;;;;;4979923;28;20444;-73
2021/07/24 13:21:27;;;;;;;25.23;23.70;;;;;;;;;;4982446;28;20475;-73
2021/07/24 13:23:56;;;;;;;25.83;24.33;;;;;;;;;;4981740;28;20943;-74
2021/07/24 13:29:08;;;;;;;24.87;23.47;;;;;;;;;;4976147;28;20435;-73
2021/07/24 13:31:37;;;;;;;25.20;23.73;;;;;;;;;;4975098;28;20497;-74
2021/07/24 13:34:04;;;;;;;24.83;23.10;;;;;;;;;;4975729;28;20487;-74
2021/07/24 13:36:33;;;;;;;25.40;23.87;;;;;;;;;;4975746;28;20447;-74
2021/07/24 13:39:00;;;;;;;25.40;24.00;;;;;;;;;;4975820;28;20450;-73
2021/07/24 13:41:28;;;;;;;24.47;23.10;;;;;;;;;;4974909;28;20471;-74
2021/07/24 13:43:55;;;;;;;24.77;23.27;;;;;;;;;;4975435;28;20447;-74
2021/07/24 13:46:22;;;;;;;26.43;24.83;;;;;;;;;;4974846;28;20460;-74
2021/07/24 13:48:50;;;;;;;24.87;23.43;;;;;;;;;;4976012;28;20447;-73
2021/07/24 13:51:24;;;;;;;25.70;24.30;;;;;;;;;;4975377;28;20477;-74
2021/07/24 13:53:51;;;;;;;25.40;23.80;;;;;;;;;;4975566;28;20546;-74
2021/07/24 13:56:19;;;;;;;24.53;23.13;;;;;;;;;;4974952;28;20943;-73
2021/07/24 13:58:46;;;;;;;25.20;23.70;;;;;;;;;;4975666;28;20457;-73
2021/07/24 14:01:13;;;;;;;26.37;24.77;;;;;;;;;;4975027;28;20475;-74
2021/07/24 14:03:40;;;;;;;26.27;24.67;;;;;;;;;;4976072;28;20447;-73
2021/07/24 14:06:08;;;;;;;26.17;24.57;;;;;;;;;;4975968;28;20455;-74
2021/07/24 14:08:35;;;;;;;26.77;25.07;;;;;;;;;;4975685;28;20451;-74
2021/07/24 14:11:13;;;;;;;25.60;24.20;;;;;;;;;;4975183;28;20566;-74
2021/07/24 14:13:40;;;;;;;26.43;24.93;;;;;;;;;;4975087;28;20490;-74
2021/07/24 14:16:11;;;;;;;26.40;24.90;;;;;;;;;;4975771;28;20455;-74
2021/07/24 14:18:38;;;;;;;25.50;24.10;;;;;;;;;;4975606;28;20451;-74
2021/07/24 14:21:05;;;;;;;25.57;24.17;;;;;;;;;;4975190;28;21009;-73
2021/07/24 14:23:34;;;;;;;27.00;25.40;;;;;;;;;;4975421;28;20444;-73
2021/07/24 14:26:03;;;;;;;26.47;24.90;;;;;;;;;;4975425;28;20451;-71
2021/07/24 14:28:30;;;;;;;26.63;25.13;;;;;;;;;;4977304;28;20452;-71